Time;durP1;ratioP1;P1;durP2;ratioP2;P2;SDS_P1;SDS_P2;PMS_P1;PMS_P2;Temp;Humidity;BMP_temperature;BMP_pressure;BME280_temperature;BME280_humidity;BME280_pressure;Samples;Min_cycle;Max_cycle;Signal;HPM_P1;HPM_P2
2021/04/10 00:00:33;;;;;;;3.92;0.80;;;;;;;;;;4986922;28;20048;-60
2021/04/10 00:03:00;;;;;;;3.90;0.93;;;;;;;;;;4991369;28;20733;-60
2021/04/10 00:05:26;;;;;;;9.73;0.80;;;;;;;;;;4988203;28;20089;-60
2021/04/10 00:07:53;;;;;;;15.13;2.05;;;;;;;;;;4990120;28;20038;-59
2021/04/10 00:10:20;;;;;;;10.65;1.20;;;;;;;;;;4971031;28;20565;-60
2021/04/10 00:12:45;;;;;;;13.50;2.33;;;;;;;;;;4993767;28;20038;-59
2021/04/10 00:15:13;;;;;;;14.63;1.10;;;;;;;;;;4994334;28;20811;-60
2021/04/10 00:17:39;;;;;;;21.75;1.60;;;;;;;;;;4988597;28;20098;-60
2021/04/10 00:20:06;;;;;;;10.10;0.93;;;;;;;;;;4994219;28;20082;-60
2021/04/10 00:22:32;;;;;;;6.22;1.58;;;;;;;;;;4994604;28;20946;-60
2021/04/10 00:24:58;;;;;;;13.93;1.52;;;;;;;;;;4994525;28;20188;-60
2021/04/10 00:27:24;;;;;;;19.35;1.60;;;;;;;;;;4991630;28;20040;-62
2021/04/10 00:29:50;;;;;;;8.10;0.90;;;;;;;;;;4992984;28;20038;-60
2021/04/10 00:32:15;;;;;;;9.27;1.30;;;;;;;;;;4993300;28;20403;-61
2021/04/10 00:34:41;;;;;;;6.15;1.20;;;;;;;;;;4990612;28;20045;-60
2021/04/10 00:37:07;;;;;;;2.85;0.65;;;;;;;;;;4990972;28;20045;-60
2021/04/10 00:39:33;;;;;;;6.93;0.80;;;;;;;;;;4990102;28;20033;-61
2021/04/10 00:41:59;;;;;;;2.63;0.52;;;;;;;;;;4990104;28;20057;-60
2021/04/10 00:44:25;;;;;;;13.80;1.05;;;;;;;;;;4991303;28;20089;-61
2021/04/10 00:46:51;;;;;;;2.60;0.60;;;;;;;;;;4992603;28;20045;-61
2021/04/10 00:49:16;;;;;;;3.67;0.82;;;;;;;;;;4989527;28;20045;-60
2021/04/10 00:51:42;;;;;;;14.27;0.90;;;;;;;;;;4989612;28;20497;-60
2021/04/10 00:54:08;;;;;;;11.95;1.23;;;;;;;;;;4989010;28;20044;-60
2021/04/10 00:56:34;;;;;;;13.57;1.35;;;;;;;;;;4987018;28;20521;-62
2021/04/10 00:59:00;;;;;;;3.95;0.70;;;;;;;;;;4989077;28;20038;-62
2021/04/10 01:01:26;;;;;;;5.97;0.80;;;;;;;;;;4969823;28;20611;-62
2021/04/10 01:03:52;;;;;;;11.73;0.90;;;;;;;;;;4971585;28;20084;-63
2021/04/10 01:06:18;;;;;;;4.82;0.65;;;;;;;;;;4990114;28;21105;-60
2021/04/10 01:08:44;;;;;;;4.22;0.75;;;;;;;;;;4989036;28;20469;-59
2021/04/10 01:11:22;;;;;;;8.30;0.60;;;;;;;;;;4990565;28;20034;-59
2021/04/10 01:13:52;;;;;;;3.35;0.55;;;;;;;;;;4988795;28;20091;-60
2021/04/10 01:16:36;;;;;;;5.07;0.88;;;;;;;;;;4988927;28;20121;-61
2021/04/10 01:19:02;;;;;;;4.22;0.85;;;;;;;;;;4989721;28;20049;-60
2021/04/10 01:21:28;;;;;;;8.88;1.00;;;;;;;;;;4987319;28;20034;-59
2021/04/10 01:23:54;;;;;;;2.45;0.70;;;;;;;;;;4990995;28;20108;-61
2021/04/10 01:26:32;;;;;;;4.45;0.65;;;;;;;;;;4990922;28;20376;-61
2021/04/10 01:29:02;;;;;;;2.55;0.50;;;;;;;;;;4991571;28;20076;-60
2021/04/10 01:31:34;;;;;;;4.00;0.73;;;;;;;;;;4970383;28;20037;-59
2021/04/10 01:34:01;;;;;;;6.80;0.85;;;;;;;;;;4991193;28;20042;-57
2021/04/10 01:36:30;;;;;;;1.35;0.50;;;;;;;;;;4988358;28;20458;-60
2021/04/10 01:38:57;;;;;;;5.88;0.80;;;;;;;;;;4989823;28;20057;-58
2021/04/10 01:41:23;;;;;;;1.63;0.50;;;;;;;;;;4970984;28;20056;-57
2021/04/10 01:43:49;;;;;;;2.80;0.60;;;;;;;;;;4989647;28;20042;-60
2021/04/10 01:46:16;;;;;;;3.55;0.52;;;;;;;;;;4991755;28;20401;-60
2021/04/10 01:48:43;;;;;;;2.60;0.80;;;;;;;;;;4990366;28;20075;-59
2021/04/10 01:51:09;;;;;;;2.10;0.60;;;;;;;;;;4987132;28;20106;-59
2021/04/10 01:53:35;;;;;;;1.48;0.50;;;;;;;;;;4991778;28;21801;-59
2021/04/10 01:56:02;;;;;;;2.15;0.60;;;;;;;;;;4992815;28;20137;-60
2021/04/10 01:58:28;;;;;;;3.83;0.80;;;;;;;;;;4990380;28;20080;-62
2021/04/10 02:00:57;;;;;;;2.75;0.50;;;;;;;;;;4993311;28;20038;-61
2021/04/10 02:03:23;;;;;;;1.27;0.50;;;;;;;;;;4990075;28;20553;-58
2021/04/10 02:05:49;;;;;;;2.85;1.10;;;;;;;;;;4984814;28;20102;-60
2021/04/10 02:08:25;;;;;;;9.85;0.60;;;;;;;;;;4990712;28;20049;-60
2021/04/10 02:11:11;;;;;;;2.40;0.60;;;;;;;;;;4972258;28;20609;-61
2021/04/10 02:13:42;;;;;;;10.75;0.80;;;;;;;;;;4987352;28;20157;-61
2021/04/10 02:16:26;;;;;;;2.47;0.60;;;;;;;;;;4983116;28;20117;-60
2021/04/10 02:18:51;;;;;;;;;;;;;;;;;;4986582;28;20061;-59
2021/04/10 02:21:33;;;;;;;4.00;0.70;;;;;;;;;;4978043;28;20465;-59
2021/04/10 02:24:02;;;;;;;2.72;0.60;;;;;;;;;;4959584;28;20077;-60
2021/04/10 02:26:46;;;;;;;7.63;0.85;;;;;;;;;;4977666;28;20074;-62
2021/04/10 02:29:41;;;;;;;3.75;0.63;;;;;;;;;;4982240;28;20030;-60
2021/04/10 02:32:09;;;;;;;2.97;0.68;;;;;;;;;;4985743;28;20125;-60
2021/04/10 02:34:47;;;;;;;1.80;0.50;;;;;;;;;;4971363;28;20668;-59
2021/04/10 02:37:13;;;;;;;2.95;0.50;;;;;;;;;;4989228;28;20035;-59
2021/04/10 02:39:42;;;;;;;1.95;0.70;;;;;;;;;;4979372;28;20581;-59
2021/04/10 02:42:14;;;;;;;2.08;0.50;;;;;;;;;;4971283;28;20113;-61
2021/04/10 02:44:51;;;;;;;2.03;0.63;;;;;;;;;;4973307;28;20458;-60
2021/04/10 02:47:18;;;;;;;4.55;0.70;;;;;;;;;;4958435;28;20054;-59
2021/04/10 02:49:58;;;;;;;3.08;0.55;;;;;;;;;;4968849;28;20044;-61
2021/04/10 02:52:47;;;;;;;2.40;0.50;;;;;;;;;;4985201;28;20054;-59
2021/04/10 02:55:33;;;;;;;2.25;0.70;;;;;;;;;;4946614;28;20038;-60
2021/04/10 02:58:03;;;;;;;4.32;0.60;;;;;;;;;;4985932;28;20498;-60
2021/04/10 03:00:29;;;;;;;2.40;0.60;;;;;;;;;;4963190;28;20129;-60
2021/04/10 03:03:00;;;;;;;2.95;0.65;;;;;;;;;;4974157;28;20042;-59
2021/04/10 03:05:26;;;;;;;4.38;1.10;;;;;;;;;;4974099;28;20526;-58
2021/04/10 03:07:53;;;;;;;4.25;0.60;;;;;;;;;;4986026;28;20104;-62
2021/04/10 03:10:19;;;;;;;2.35;0.70;;;;;;;;;;4987025;28;20726;-61
2021/04/10 03:12:49;;;;;;;2.25;0.60;;;;;;;;;;4961730;28;20513;-59
2021/04/10 03:15:19;;;;;;;2.20;0.77;;;;;;;;;;4949126;28;20100;-60
2021/04/10 03:17:47;;;;;;;4.22;0.90;;;;;;;;;;4961560;28;20042;-61
2021/04/10 03:20:14;;;;;;;2.35;0.70;;;;;;;;;;4975275;28;20507;-60
2021/04/10 03:22:55;;;;;;;2.60;0.80;;;;;;;;;;4973161;28;20038;-61
2021/04/10 03:25:35;;;;;;;3.08;0.80;;;;;;;;;;4951021;28;20042;-60
2021/04/10 03:28:02;;;;;;;4.00;0.80;;;;;;;;;;4966491;28;20037;-62
2021/04/10 03:30:34;;;;;;;2.33;0.70;;;;;;;;;;4987375;28;20045;-59
2021/04/10 03:33:13;;;;;;;2.67;0.73;;;;;;;;;;4968125;28;20565;-60
2021/04/10 03:35:46;;;;;;;6.65;1.00;;;;;;;;;;4978273;28;20623;-60
2021/04/10 03:38:15;;;;;;;2.85;1.10;;;;;;;;;;4978165;28;20037;-60
2021/04/10 03:40:45;;;;;;;3.80;0.70;;;;;;;;;;4988631;28;20053;-61
2021/04/10 03:43:14;;;;;;;4.13;0.85;;;;;;;;;;4958688;28;20630;-60
2021/04/10 03:45:53;;;;;;;2.90;0.93;;;;;;;;;;4950640;28;20057;-59
2021/04/10 03:48:42;;;;;;;2.78;1.23;;;;;;;;;;4950082;28;20102;-61
2021/04/10 03:51:11;;;;;;;2.90;1.00;;;;;;;;;;4944222;28;20043;-59
2021/04/10 03:53:37;;;;;;;3.45;0.90;;;;;;;;;;4960984;28;20050;-61
2021/04/10 03:56:09;;;;;;;7.40;1.30;;;;;;;;;;4967271;28;20042;-60
2021/04/10 03:58:48;;;;;;;4.10;1.20;;;;;;;;;;4960139;28;20479;-57
2021/04/10 04:01:18;;;;;;;2.65;1.17;;;;;;;;;;4971197;28;20035;-61
2021/04/10 04:03:47;;;;;;;5.63;1.60;;;;;;;;;;4936015;28;20178;-61
2021/04/10 04:06:22;;;;;;;2.70;1.08;;;;;;;;;;4969967;28;20057;-58
2021/04/10 04:08:48;;;;;;;3.45;1.00;;;;;;;;;;4939962;28;20486;-58
2021/04/10 04:11:14;;;;;;;2.67;0.85;;;;;;;;;;4972463;28;20045;-58
2021/04/10 04:13:40;;;;;;;3.30;0.98;;;;;;;;;;4968705;28;20256;-56
2021/04/10 04:16:06;;;;;;;3.30;1.00;;;;;;;;;;4970463;28;20634;-59
2021/04/10 04:18:32;;;;;;;5.28;0.70;;;;;;;;;;4970156;28;20598;-56
2021/04/10 04:20:58;;;;;;;2.45;0.70;;;;;;;;;;4982233;28;20159;-60
2021/04/10 04:23:44;;;;;;;4.22;1.00;;;;;;;;;;4924056;28;20039;-59
2021/04/10 04:26:10;;;;;;;5.13;0.80;;;;;;;;;;4924832;28;20075;-59
2021/04/10 04:28:39;;;;;;;4.68;1.08;;;;;;;;;;4907134;28;20141;-57
2021/04/10 04:31:05;;;;;;;3.75;0.73;;;;;;;;;;4925207;29;20043;-61
2021/04/10 04:33:31;;;;;;;3.60;0.88;;;;;;;;;;4924241;28;20051;-60
2021/04/10 04:35:59;;;;;;;7.05;0.75;;;;;;;;;;4922514;28;20054;-61
2021/04/10 04:38:25;;;;;;;2.22;0.60;;;;;;;;;;4914064;28;20051;-60
2021/04/10 04:40:51;;;;;;;3.85;0.80;;;;;;;;;;4923361;28;20075;-60
2021/04/10 04:43:17;;;;;;;2.28;0.65;;;;;;;;;;4943932;28;20078;-60
2021/04/10 04:45:43;;;;;;;2.08;0.57;;;;;;;;;;4942970;28;20138;-60
2021/04/10 04:48:09;;;;;;;2.88;0.70;;;;;;;;;;4944392;28;20471;-60
2021/04/10 04:50:35;;;;;;;10.50;0.90;;;;;;;;;;4944160;28;20047;-59
2021/04/10 04:53:01;;;;;;;2.50;0.60;;;;;;;;;;4937501;28;20045;-60
2021/04/10 04:55:27;;;;;;;2.60;0.70;;;;;;;;;;4949005;28;20050;-59
2021/04/10 04:57:53;;;;;;;2.55;0.80;;;;;;;;;;4942376;28;20031;-62
2021/04/10 05:00:28;;;;;;;2.45;0.70;;;;;;;;;;4954325;28;20051;-60
2021/04/10 05:02:54;;;;;;;2.60;0.75;;;;;;;;;;4995261;28;20045;-60
2021/04/10 05:05:21;;;;;;;3.03;0.90;;;;;;;;;;4994022;28;20046;-59
2021/04/10 05:07:50;;;;;;;3.05;0.73;;;;;;;;;;4995171;28;20038;-60
2021/04/10 05:10:15;;;;;;;2.67;0.80;;;;;;;;;;4997392;28;20053;-61
2021/04/10 05:13:02;;;;;;;3.45;0.80;;;;;;;;;;4994971;28;20038;-60
2021/04/10 05:15:32;;;;;;;3.30;0.73;;;;;;;;;;4989880;28;20386;-59
2021/04/10 05:17:59;;;;;;;2.50;0.75;;;;;;;;;;4995134;28;20486;-60
2021/04/10 05:20:25;;;;;;;2.95;1.00;;;;;;;;;;4993952;28;20045;-58
2021/04/10 05:22:57;;;;;;;3.88;0.77;;;;;;;;;;4992091;28;20042;-58
2021/04/10 05:25:26;;;;;;;2.80;0.80;;;;;;;;;;4991608;28;20050;-58
2021/04/10 05:27:52;;;;;;;2.20;0.80;;;;;;;;;;4993847;28;20037;-61
2021/04/10 05:30:19;;;;;;;4.50;0.95;;;;;;;;;;4996812;28;20049;-61
2021/04/10 05:32:45;;;;;;;3.28;0.90;;;;;;;;;;4990356;28;20068;-58
2021/04/10 05:35:11;;;;;;;2.75;0.88;;;;;;;;;;5001164;28;20791;-61
2021/04/10 05:37:37;;;;;;;2.70;0.90;;;;;;;;;;4976103;28;20053;-60
2021/04/10 05:40:04;;;;;;;2.00;0.70;;;;;;;;;;5006534;28;20030;-60
2021/04/10 05:42:30;;;;;;;2.63;0.63;;;;;;;;;;4995835;28;20072;-61
2021/04/10 05:44:57;;;;;;;7.80;1.00;;;;;;;;;;4995068;28;20179;-59
2021/04/10 05:47:29;;;;;;;5.45;1.00;;;;;;;;;;4980449;28;20038;-60
2021/04/10 05:49:55;;;;;;;4.10;1.00;;;;;;;;;;4973954;28;20078;-60
2021/04/10 05:52:23;;;;;;;2.53;0.90;;;;;;;;;;4972513;28;20066;-59
2021/04/10 05:54:50;;;;;;;3.75;0.80;;;;;;;;;;4970996;28;20495;-58
2021/04/10 05:57:18;;;;;;;3.67;0.90;;;;;;;;;;4927828;28;20129;-60
2021/04/10 05:59:44;;;;;;;5.05;0.93;;;;;;;;;;4972699;28;20070;-60
2021/04/10 06:02:11;;;;;;;3.92;0.80;;;;;;;;;;4970344;28;20114;-60
2021/04/10 06:04:38;;;;;;;5.03;0.93;;;;;;;;;;4956429;28;20205;-61
2021/04/10 06:07:10;;;;;;;4.80;1.08;;;;;;;;;;4970019;28;20803;-61
2021/04/10 06:09:40;;;;;;;4.57;0.80;;;;;;;;;;4965563;28;20054;-58
2021/04/10 06:12:09;;;;;;;3.92;0.88;;;;;;;;;;4968876;28;20050;-59
2021/04/10 06:14:38;;;;;;;3.78;0.80;;;;;;;;;;4950466;28;20047;-60
2021/04/10 06:17:07;;;;;;;4.63;1.00;;;;;;;;;;4969302;28;20151;-59
2021/04/10 06:19:33;;;;;;;2.67;0.70;;;;;;;;;;4972866;28;20035;-59
2021/04/10 06:22:02;;;;;;;2.40;0.88;;;;;;;;;;4972687;28;20046;-55
2021/04/10 06:24:28;;;;;;;3.72;0.80;;;;;;;;;;4970449;28;20059;-60
2021/04/10 06:26:54;;;;;;;4.47;0.70;;;;;;;;;;4971645;28;20098;-60
2021/04/10 06:29:20;;;;;;;3.10;1.00;;;;;;;;;;4969817;28;20042;-61
2021/04/10 06:31:47;;;;;;;3.08;1.02;;;;;;;;;;4952668;28;20676;-60
2021/04/10 06:34:13;;;;;;;2.55;0.80;;;;;;;;;;4970866;28;20603;-59
2021/04/10 06:36:39;;;;;;;3.35;1.13;;;;;;;;;;4971727;28;20047;-60
2021/04/10 06:39:05;;;;;;;4.20;1.02;;;;;;;;;;4971852;28;20928;-59
2021/04/10 06:41:36;;;;;;;3.83;1.17;;;;;;;;;;4983128;28;20141;-60
2021/04/10 06:44:06;;;;;;;2.30;0.80;;;;;;;;;;4971277;28;20164;-59
2021/04/10 06:46:33;;;;;;;2.80;0.88;;;;;;;;;;4969901;28;20046;-59
2021/04/10 06:48:59;;;;;;;2.58;0.70;;;;;;;;;;4990317;28;20042;-59
2021/04/10 06:51:25;;;;;;;4.38;0.90;;;;;;;;;;4988495;28;20070;-59
2021/04/10 06:53:53;;;;;;;3.90;0.80;;;;;;;;;;4988018;28;20041;-60
2021/04/10 06:56:24;;;;;;;3.25;0.80;;;;;;;;;;4990156;28;20046;-60
2021/04/10 06:58:56;;;;;;;2.53;0.90;;;;;;;;;;4988416;28;20045;-60
2021/04/10 07:01:22;;;;;;;4.28;1.17;;;;;;;;;;4992000;28;20065;-60
2021/04/10 07:03:56;;;;;;;3.40;1.00;;;;;;;;;;4993046;28;20048;-59
2021/04/10 07:06:22;;;;;;;3.67;1.13;;;;;;;;;;4991209;28;20137;-60
2021/04/10 07:08:48;;;;;;;10.63;1.40;;;;;;;;;;4993890;28;20048;-61
2021/04/10 07:11:15;;;;;;;5.80;1.20;;;;;;;;;;4992378;28;20393;-60
2021/04/10 07:13:47;;;;;;;6.35;1.17;;;;;;;;;;5001274;28;20034;-61
2021/04/10 07:16:16;;;;;;;6.78;0.93;;;;;;;;;;4978571;28;20086;-61
2021/04/10 07:18:43;;;;;;;7.15;1.08;;;;;;;;;;4988539;28;20042;-61
2021/04/10 07:21:24;;;;;;;4.10;1.00;;;;;;;;;;4990974;28;20035;-59
2021/04/10 07:24:01;;;;;;;6.50;1.00;;;;;;;;;;4991418;28;21844;-62
2021/04/10 07:26:46;;;;;;;4.80;1.00;;;;;;;;;;4998907;28;20045;-62
2021/04/10 07:29:30;;;;;;;6.45;0.95;;;;;;;;;;4989373;28;20066;-61
2021/04/10 07:31:57;;;;;;;4.75;1.20;;;;;;;;;;4990890;28;20042;-61
2021/04/10 07:34:23;;;;;;;3.58;0.93;;;;;;;;;;4990517;28;20046;-61
2021/04/10 07:37:02;;;;;;;5.53;0.90;;;;;;;;;;4992758;28;20042;-61
2021/04/10 07:39:28;;;;;;;3.30;0.93;;;;;;;;;;4991841;28;20039;-61
2021/04/10 07:42:01;;;;;;;4.82;1.05;;;;;;;;;;4992278;28;20053;-60
2021/04/10 07:44:37;;;;;;;4.72;0.88;;;;;;;;;;4993121;28;20050;-60
2021/04/10 07:47:07;;;;;;;7.97;1.20;;;;;;;;;;4971240;28;20103;-61
2021/04/10 07:49:33;;;;;;;8.25;1.30;;;;;;;;;;4985103;28;20053;-60
2021/04/10 07:52:03;;;;;;;7.20;1.00;;;;;;;;;;4972463;28;20511;-61
2021/04/10 07:54:47;;;;;;;3.75;1.13;;;;;;;;;;4989488;28;20035;-60
2021/04/10 07:57:15;;;;;;;2.60;0.77;;;;;;;;;;4991899;28;20042;-60
2021/04/10 07:59:54;;;;;;;2.65;0.90;;;;;;;;;;4989421;28;20044;-60
2021/04/10 08:02:21;;;;;;;2.30;0.73;;;;;;;;;;4990236;28;20356;-59
2021/04/10 08:05:03;;;;;;;3.03;1.00;;;;;;;;;;4991147;28;20053;-61
2021/04/10 08:07:36;;;;;;;4.10;1.05;;;;;;;;;;4986126;28;20046;-60
2021/04/10 08:10:07;;;;;;;4.95;1.00;;;;;;;;;;4994533;28;20046;-60
2021/04/10 08:12:34;;;;;;;3.53;1.13;;;;;;;;;;4970308;28;20058;-61
2021/04/10 08:15:01;;;;;;;4.53;0.90;;;;;;;;;;4992110;28;20094;-60
2021/04/10 08:17:39;;;;;;;5.18;1.20;;;;;;;;;;4992855;28;20056;-59
2021/04/10 08:20:25;;;;;;;4.50;1.10;;;;;;;;;;4987347;28;20671;-61
2021/04/10 08:23:13;;;;;;;2.80;0.90;;;;;;;;;;4986685;28;20117;-60
2021/04/10 08:25:39;;;;;;;2.85;0.95;;;;;;;;;;4984344;28;20329;-59
2021/04/10 08:28:09;;;;;;;2.50;0.93;;;;;;;;;;4989466;28;20038;-60
2021/04/10 08:30:36;;;;;;;2.80;1.00;;;;;;;;;;4991432;28;20057;-61
2021/04/10 08:33:02;;;;;;;2.47;0.90;;;;;;;;;;4993532;28;20050;-61
2021/04/10 08:35:35;;;;;;;4.00;0.90;;;;;;;;;;4994632;28;20042;-61
2021/04/10 08:38:10;;;;;;;4.95;1.00;;;;;;;;;;4995666;28;20427;-61
2021/04/10 08:40:49;;;;;;;6.95;1.13;;;;;;;;;;4970819;28;20093;-59
2021/04/10 08:43:31;;;;;;;3.95;0.90;;;;;;;;;;4997945;28;20038;-60
2021/04/10 08:45:57;;;;;;;3.95;1.17;;;;;;;;;;4997658;28;20103;-60
2021/04/10 08:48:23;;;;;;;3.15;0.90;;;;;;;;;;4986030;28;21093;-59
2021/04/10 08:50:51;;;;;;;6.93;1.25;;;;;;;;;;4974419;28;20049;-60
2021/04/10 08:53:24;;;;;;;4.65;1.10;;;;;;;;;;4972395;28;20066;-58
2021/04/10 08:55:51;;;;;;;4.07;1.20;;;;;;;;;;4989691;28;20038;-61
2021/04/10 08:58:31;;;;;;;4.53;0.95;;;;;;;;;;4988764;28;20521;-59
2021/04/10 09:01:00;;;;;;;3.47;0.93;;;;;;;;;;4979412;28;20109;-61
2021/04/10 09:04:05;;;;;;;3.15;1.08;;;;;;;;;;4988012;28;20131;-58
2021/04/10 09:06:34;;;;;;;5.53;0.90;;;;;;;;;;4954882;28;22195;-61
2021/04/10 09:09:13;;;;;;;3.10;1.10;;;;;;;;;;4941212;28;20086;-60
2021/04/10 09:11:58;;;;;;;3.80;1.20;;;;;;;;;;4946875;28;20034;-61
2021/04/10 09:14:48;;;;;;;3.35;1.10;;;;;;;;;;4957112;28;20042;-58
2021/04/10 09:17:41;;;;;;;3.63;0.93;;;;;;;;;;4978237;28;20042;-59
2021/04/10 09:20:28;;;;;;;;;;;;;;;;;;;;;
2021/04/10 09:22:54;;;;;;;4.85;1.00;;;;;;;;;;4967128;28;20037;-58
2021/04/10 09:25:28;;;;;;;4.25;1.20;;;;;;;;;;4928267;28;20166;-60
2021/04/10 09:28:05;;;;;;;3.28;1.10;;;;;;;;;;4985680;28;20525;-59
2021/04/10 09:30:52;;;;;;;4.43;1.25;;;;;;;;;;4966577;28;20042;-60
2021/04/10 09:33:36;;;;;;;3.10;0.93;;;;;;;;;;4986216;28;20038;-59
2021/04/10 09:36:02;;;;;;;3.08;0.80;;;;;;;;;;4959089;28;20049;-60
2021/04/10 09:38:38;;;;;;;3.53;1.00;;;;;;;;;;4988432;28;20042;-59
2021/04/10 09:41:04;;;;;;;4.60;0.90;;;;;;;;;;4989726;28;20654;-60
2021/04/10 09:43:30;;;;;;;4.95;1.00;;;;;;;;;;4989592;28;20034;-57
2021/04/10 09:45:56;;;;;;;3.53;1.33;;;;;;;;;;4989034;28;20061;-59
2021/04/10 09:48:23;;;;;;;3.72;1.25;;;;;;;;;;4987665;28;20108;-59
2021/04/10 09:50:55;;;;;;;3.47;0.93;;;;;;;;;;4988226;28;20068;-59
2021/04/10 09:53:27;;;;;;;3.78;1.10;;;;;;;;;;4988677;28;20037;-58
2021/04/10 09:55:59;;;;;;;3.33;1.23;;;;;;;;;;4990279;28;20046;-59
2021/04/10 09:58:26;;;;;;;7.45;2.03;;;;;;;;;;4988419;28;20421;-58
2021/04/10 10:00:52;;;;;;;7.18;1.40;;;;;;;;;;4989491;28;20042;-60
2021/04/10 10:03:19;;;;;;;3.15;1.10;;;;;;;;;;4990304;28;20033;-55
2021/04/10 10:05:46;;;;;;;3.78;1.25;;;;;;;;;;4990513;28;20051;-59
2021/04/10 10:08:13;;;;;;;3.95;1.13;;;;;;;;;;4989254;28;20034;-58
2021/04/10 10:10:52;;;;;;;4.28;1.25;;;;;;;;;;4987371;28;20064;-60
2021/04/10 10:13:19;;;;;;;9.02;1.60;;;;;;;;;;4987430;28;20121;-59
2021/04/10 10:15:46;;;;;;;3.80;1.20;;;;;;;;;;4987917;28;20034;-60
2021/04/10 10:18:15;;;;;;;4.15;1.58;;;;;;;;;;4988534;28;20034;-60
2021/04/10 10:20:53;;;;;;;4.43;1.40;;;;;;;;;;4987170;28;20034;-60
2021/04/10 10:23:19;;;;;;;3.70;1.30;;;;;;;;;;4987154;28;20407;-60
2021/04/10 10:25:45;;;;;;;8.00;1.55;;;;;;;;;;4989534;28;20121;-58
2021/04/10 10:28:17;;;;;;;5.57;1.70;;;;;;;;;;4987761;28;20089;-60
2021/04/10 10:30:44;;;;;;;5.45;1.13;;;;;;;;;;4987831;28;20041;-60
2021/04/10 10:33:10;;;;;;;4.10;1.33;;;;;;;;;;4986298;28;20141;-60
2021/04/10 10:35:36;;;;;;;4.10;1.10;;;;;;;;;;4987243;28;20046;-58
2021/04/10 10:38:03;;;;;;;4.95;1.40;;;;;;;;;;4988835;28;20066;-59
2021/04/10 10:40:29;;;;;;;3.97;1.23;;;;;;;;;;4988114;28;20415;-58
2021/04/10 10:43:01;;;;;;;3.55;1.20;;;;;;;;;;4989748;28;20045;-60
2021/04/10 10:45:42;;;;;;;5.53;1.15;;;;;;;;;;4985888;28;20046;-58
2021/04/10 10:48:18;;;;;;;4.82;1.10;;;;;;;;;;4988797;28;20043;-59
2021/04/10 10:50:44;;;;;;;4.43;1.00;;;;;;;;;;4986849;28;20073;-59
2021/04/10 10:53:13;;;;;;;5.78;1.23;;;;;;;;;;4986856;28;20045;-59
2021/04/10 10:55:58;;;;;;;5.70;1.23;;;;;;;;;;4986753;28;20050;-60
2021/04/10 10:58:25;;;;;;;4.00;1.20;;;;;;;;;;4985347;28;20034;-58
2021/04/10 11:00:51;;;;;;;4.85;1.52;;;;;;;;;;4988158;28;20420;-61
2021/04/10 11:03:21;;;;;;;4.07;1.08;;;;;;;;;;4987258;28;20453;-60
2021/04/10 11:05:48;;;;;;;3.90;1.30;;;;;;;;;;4984979;28;20720;-59
2021/04/10 11:08:16;;;;;;;5.70;1.30;;;;;;;;;;4988618;28;20042;-58
2021/04/10 11:10:42;;;;;;;3.90;1.10;;;;;;;;;;4988465;28;20089;-58
2021/04/10 11:13:10;;;;;;;4.97;1.35;;;;;;;;;;4987364;28;20034;-58
2021/04/10 11:15:36;;;;;;;4.15;1.25;;;;;;;;;;4986752;28;20065;-60
2021/04/10 11:18:03;;;;;;;4.43;1.33;;;;;;;;;;4989051;28;20043;-58
2021/04/10 11:20:29;;;;;;;5.13;1.35;;;;;;;;;;4966898;28;20158;-59
2021/04/10 11:23:07;;;;;;;4.38;1.50;;;;;;;;;;4987299;28;20108;-59
2021/04/10 11:25:49;;;;;;;3.75;1.20;;;;;;;;;;4985777;28;20046;-58
2021/04/10 11:28:31;;;;;;;5.70;1.27;;;;;;;;;;4989235;28;20038;-60
2021/04/10 11:31:07;;;;;;;5.90;1.30;;;;;;;;;;4989699;28;20046;-59
2021/04/10 11:33:37;;;;;;;4.47;1.20;;;;;;;;;;4987008;28;20050;-60
2021/04/10 11:36:03;;;;;;;4.45;1.23;;;;;;;;;;4987873;28;20849;-58
2021/04/10 11:38:29;;;;;;;3.92;1.10;;;;;;;;;;4988678;28;20129;-59
2021/04/10 11:40:55;;;;;;;6.95;1.40;;;;;;;;;;4988952;28;20051;-61
2021/04/10 11:43:21;;;;;;;3.85;1.20;;;;;;;;;;4987086;28;20041;-59
2021/04/10 11:45:49;;;;;;;5.28;1.35;;;;;;;;;;4989334;28;20050;-59
2021/04/10 11:48:19;;;;;;;4.75;1.10;;;;;;;;;;4975838;28;20042;-60
2021/04/10 11:50:45;;;;;;;3.90;1.20;;;;;;;;;;4987824;28;20046;-61
2021/04/10 11:53:12;;;;;;;3.47;1.15;;;;;;;;;;4987897;28;20439;-58
2021/04/10 11:55:38;;;;;;;6.30;1.25;;;;;;;;;;4987365;28;20038;-59
2021/04/10 11:58:04;;;;;;;3.17;1.10;;;;;;;;;;4988705;28;20038;-57
2021/04/10 12:00:30;;;;;;;5.68;1.58;;;;;;;;;;4989949;28;20100;-60
2021/04/10 12:03:14;;;;;;;6.78;1.60;;;;;;;;;;4988347;28;20042;-61
2021/04/10 12:05:39;;;;;;;;;;;;;;;;;;4988918;28;20593;-60
2021/04/10 12:08:05;;;;;;;3.38;1.10;;;;;;;;;;4992781;28;19921;-59
2021/04/10 12:10:31;;;;;;;4.07;1.20;;;;;;;;;;4991746;28;20037;-59
2021/04/10 12:12:57;;;;;;;4.68;1.48;;;;;;;;;;4989688;28;20041;-59
2021/04/10 12:15:26;;;;;;;4.85;1.40;;;;;;;;;;4987731;28;20045;-59
2021/04/10 12:17:52;;;;;;;5.63;1.35;;;;;;;;;;4992395;28;20120;-60
2021/04/10 12:20:18;;;;;;;5.07;1.63;;;;;;;;;;4991771;28;20121;-58
2021/04/10 12:22:44;;;;;;;7.47;1.50;;;;;;;;;;4991415;28;20234;-58
2021/04/10 12:25:10;;;;;;;7.72;1.80;;;;;;;;;;4992748;28;20049;-59
2021/04/10 12:27:36;;;;;;;8.57;1.70;;;;;;;;;;4990376;28;20140;-59
2021/04/10 12:30:04;;;;;;;10.18;1.88;;;;;;;;;;4990480;28;20034;-56
2021/04/10 12:32:30;;;;;;;6.63;1.88;;;;;;;;;;4989630;28;20045;-56
2021/04/10 12:34:56;;;;;;;5.63;1.40;;;;;;;;;;4990379;28;20153;-59
2021/04/10 12:37:22;;;;;;;6.45;1.45;;;;;;;;;;4991117;28;20038;-59
2021/04/10 12:39:48;;;;;;;6.38;1.50;;;;;;;;;;4991614;28;20030;-56
2021/04/10 12:42:14;;;;;;;5.18;1.50;;;;;;;;;;4990129;28;20053;-59
2021/04/10 12:44:39;;;;;;;7.63;1.90;;;;;;;;;;4991105;28;20084;-59
2021/04/10 12:47:05;;;;;;;5.78;1.40;;;;;;;;;;4991665;28;20568;-58
2021/04/10 12:49:34;;;;;;;6.53;1.77;;;;;;;;;;4990416;28;20081;-58
2021/04/10 12:52:00;;;;;;;8.38;1.42;;;;;;;;;;4991647;28;20073;-60
2021/04/10 12:54:26;;;;;;;5.43;1.30;;;;;;;;;;4982474;28;20144;-58
2021/04/10 12:56:54;;;;;;;3.78;1.45;;;;;;;;;;4989946;28;20557;-59
2021/04/10 12:59:20;;;;;;;4.78;1.40;;;;;;;;;;4988784;28;20053;-59
2021/04/10 13:01:46;;;;;;;5.10;1.52;;;;;;;;;;4972161;28;20467;-57
2021/04/10 13:04:11;;;;;;;6.15;1.10;;;;;;;;;;4989191;28;20062;-57
2021/04/10 13:06:37;;;;;;;5.88;1.80;;;;;;;;;;4990701;28;20100;-58
2021/04/10 13:09:03;;;;;;;8.63;1.30;;;;;;;;;;4990486;28;20157;-58
2021/04/10 13:11:29;;;;;;;6.20;1.10;;;;;;;;;;4989639;28;20066;-59
2021/04/10 13:13:55;;;;;;;4.85;1.35;;;;;;;;;;4990233;28;20054;-59
2021/04/10 13:16:21;;;;;;;4.05;1.35;;;;;;;;;;4986826;28;20050;-58
2021/04/10 13:18:47;;;;;;;4.25;1.15;;;;;;;;;;4990826;28;20572;-59
2021/04/10 13:21:13;;;;;;;5.65;1.00;;;;;;;;;;4990385;28;20498;-57
2021/04/10 13:23:38;;;;;;;3.50;1.23;;;;;;;;;;4989885;28;20042;-59
2021/04/10 13:26:04;;;;;;;3.63;1.20;;;;;;;;;;4990687;28;20495;-57
2021/04/10 13:28:30;;;;;;;5.45;1.20;;;;;;;;;;4991960;28;20042;-59
2021/04/10 13:30:59;;;;;;;7.22;1.30;;;;;;;;;;4985750;28;20038;-59
2021/04/10 13:33:26;;;;;;;4.53;1.35;;;;;;;;;;4989801;28;20108;-60
2021/04/10 13:35:52;;;;;;;3.25;1.10;;;;;;;;;;4992181;28;20042;-55
2021/04/10 13:38:18;;;;;;;6.70;1.20;;;;;;;;;;4993399;28;20045;-58
2021/04/10 13:40:44;;;;;;;2.85;0.90;;;;;;;;;;4994092;28;20042;-57
2021/04/10 13:43:10;;;;;;;4.63;1.33;;;;;;;;;;4993679;28;20034;-58
2021/04/10 13:45:35;;;;;;;1.67;0.63;;;;;;;;;;4991088;28;20076;-58
2021/04/10 13:48:02;;;;;;;4.90;1.35;;;;;;;;;;4992648;28;20552;-57
2021/04/10 13:50:27;;;;;;;5.15;1.20;;;;;;;;;;4990733;28;20497;-57
2021/04/10 13:52:53;;;;;;;5.32;1.80;;;;;;;;;;4992433;28;20038;-57
2021/04/10 13:55:19;;;;;;;7.32;1.73;;;;;;;;;;4989039;28;20418;-57
2021/04/10 13:57:45;;;;;;;3.50;1.10;;;;;;;;;;4992119;28;20089;-58
2021/04/10 14:00:11;;;;;;;3.95;1.38;;;;;;;;;;4989313;28;20129;-57
2021/04/10 14:02:37;;;;;;;3.42;1.25;;;;;;;;;;4990042;28;20559;-56
2021/04/10 14:05:21;;;;;;;4.78;1.10;;;;;;;;;;4991046;28;20061;-56
2021/04/10 14:07:47;;;;;;;3.38;1.15;;;;;;;;;;4984458;28;20049;-57
2021/04/10 14:10:23;;;;;;;3.75;1.38;;;;;;;;;;4991653;28;20038;-58
2021/04/10 14:12:50;;;;;;;4.35;1.13;;;;;;;;;;4989127;28;20709;-59
2021/04/10 14:15:18;;;;;;;3.70;1.13;;;;;;;;;;4989211;28;20038;-58
2021/04/10 14:17:44;;;;;;;6.60;1.40;;;;;;;;;;4989430;28;20144;-58
2021/04/10 14:20:11;;;;;;;5.75;1.40;;;;;;;;;;4989668;28;20137;-60
2021/04/10 14:22:37;;;;;;;4.35;1.02;;;;;;;;;;4989257;28;20596;-59
2021/04/10 14:25:03;;;;;;;3.45;1.00;;;;;;;;;;4985635;28;20046;-57
2021/04/10 14:27:29;;;;;;;2.85;0.95;;;;;;;;;;4986065;28;20478;-57
2021/04/10 14:29:55;;;;;;;6.50;1.40;;;;;;;;;;4988092;28;20037;-57
2021/04/10 14:32:21;;;;;;;5.63;2.15;;;;;;;;;;4987098;28;20096;-60
2021/04/10 14:34:47;;;;;;;6.40;1.60;;;;;;;;;;4987747;28;20053;-54
2021/04/10 14:37:13;;;;;;;6.97;1.20;;;;;;;;;;4987818;28;20046;-58
2021/04/10 14:39:39;;;;;;;4.05;1.30;;;;;;;;;;4989457;28;20042;-58
2021/04/10 14:42:05;;;;;;;8.52;1.48;;;;;;;;;;4990072;28;20045;-56
2021/04/10 14:44:31;;;;;;;5.20;1.10;;;;;;;;;;4986901;28;20034;-59
2021/04/10 14:46:57;;;;;;;3.28;1.00;;;;;;;;;;4988709;28;20066;-59
2021/04/10 14:49:23;;;;;;;4.13;1.08;;;;;;;;;;4990703;28;20146;-60
2021/04/10 14:51:49;;;;;;;2.75;0.80;;;;;;;;;;4990461;28;20034;-57
2021/04/10 14:54:15;;;;;;;4.43;0.90;;;;;;;;;;4987828;28;20407;-59
2021/04/10 14:56:41;;;;;;;2.17;0.80;;;;;;;;;;4988554;28;20068;-58